sensor_id;sensor_type;location;lat;lon;timestamp;pressure;altitude;pressure_sealevel;temperature;humidity
12913;BME280;6524;51.368;11.984;2023-01-25T00:01:10;102413.56;;;12.17;53.97
12913;BME280;6524;51.368;11.984;2023-01-25T00:06:11;102405.13;;;11.66;54.95
12913;BME280;6524;51.368;11.984;2023-01-25T00:11:11;102401.56;;;11.76;54.88
12913;BME280;6524;51.368;11.984;2023-01-25T00:16:11;102399.16;;;11.24;55.83
12913;BME280;6524;51.368;11.984;2023-01-25T00:21:18;102389.47;;;11.57;55.18
12913;BME280;6524;51.368;11.984;2023-01-25T00:26:19;102399.94;;;11.57;55.06
12913;BME280;6524;51.368;11.984;2023-01-25T00:36:56;102387.63;;;11.77;54.56
12913;BME280;6524;51.368;11.984;2023-01-25T00:41:57;102395.53;;;11.67;54.64
12913;BME280;6524;51.368;11.984;2023-01-25T00:46:57;102403.31;;;11.74;54.17
12913;BME280;6524;51.368;11.984;2023-01-25T00:51:58;102398.94;;;11.78;54.16
12913;BME280;6524;51.368;11.984;2023-01-25T00:56:58;102386.59;;;12.09;54.03
12913;BME280;6524;51.368;11.984;2023-01-25T05:03:17;102186.34;;;11.87;54.40
12913;BME280;6524;51.368;11.984;2023-01-25T05:08:19;102185.94;;;12.28;53.14
12913;BME280;6524;51.368;11.984;2023-01-25T05:13:20;102195.59;;;12.24;53.33
12913;BME280;6524;51.368;11.984;2023-01-25T05:18:21;102187.03;;;12.10;53.51
12913;BME280;6524;51.368;11.984;2023-01-25T05:23:21;102194.06;;;12.02;53.81
12913;BME280;6524;51.368;11.984;2023-01-25T05:28:21;102188.47;;;12.39;52.57
12913;BME280;6524;51.368;11.984;2023-01-25T05:33:22;102176.69;;;11.96;53.58
12913;BME280;6524;51.368;11.984;2023-01-25T05:38:22;102188.81;;;12.05;53.86
12913;BME280;6524;51.368;11.984;2023-01-25T05:43:22;102182.34;;;12.40;52.89
12913;BME280;6524;51.368;11.984;2023-01-25T05:48:23;102180.03;;;12.09;53.42
12913;BME280;6524;51.368;11.984;2023-01-25T05:53:25;102171.56;;;11.81;54.44
12913;BME280;6524;51.368;11.984;2023-01-25T05:58:25;102182.47;;;12.29;53.52
12913;BME280;6524;51.368;11.984;2023-01-25T06:03:26;102181.97;;;11.92;54.32
12913;BME280;6524;51.368;11.984;2023-01-25T06:08:27;102175.75;;;12.07;53.90
12913;BME280;6524;51.368;11.984;2023-01-25T06:13:28;102174.25;;;11.72;54.21
12913;BME280;6524;51.368;11.984;2023-01-25T06:18:29;102181.44;;;11.42;55.46
12913;BME280;6524;51.368;11.984;2023-01-25T06:23:30;102177.78;;;11.68;54.79
12913;BME280;6524;51.368;11.984;2023-01-25T06:28:32;102175.13;;;11.75;54.46
12913;BME280;6524;51.368;11.984;2023-01-25T06:33:34;102180.28;;;11.88;54.20
12913;BME280;6524;51.368;11.984;2023-01-25T06:38:34;102172.34;;;11.95;54.12
12913;BME280;6524;51.368;11.984;2023-01-25T06:43:34;102170.25;;;11.26;55.89
12913;BME280;6524;51.368;11.984;2023-01-25T06:48:35;102168.69;;;10.98;57.07
12913;BME280;6524;51.368;11.984;2023-01-25T06:53:37;102166.00;;;11.10;56.07
12913;BME280;6524;51.368;11.984;2023-01-25T06:58:39;102154.75;;;10.96;55.90
12913;BME280;6524;51.368;11.984;2023-01-25T07:03:40;102147.06;;;11.96;53.56
12913;BME280;6524;51.368;11.984;2023-01-25T07:08:40;102147.75;;;11.04;55.79
12913;BME280;6524;51.368;11.984;2023-01-25T07:13:41;102145.22;;;10.95;56.47
12913;BME280;6524;51.368;11.984;2023-01-25T07:18:42;102137.19;;;11.25;55.60
12913;BME280;6524;51.368;11.984;2023-01-25T07:23:43;102134.50;;;11.36;55.20
12913;BME280;6524;51.368;11.984;2023-01-25T07:28:45;102133.59;;;11.39;54.49
12913;BME280;6524;51.368;11.984;2023-01-25T07:33:49;102135.53;;;11.09;56.05
12913;BME280;6524;51.368;11.984;2023-01-25T07:38:54;102122.13;;;11.58;55.17
12913;BME280;6524;51.368;11.984;2023-01-25T07:43:55;102119.84;;;11.12;56.69
12913;BME280;6524;51.368;11.984;2023-01-25T07:48:55;102113.41;;;11.56;55.00
12913;BME280;6524;51.368;11.984;2023-01-25T07:54:03;102105.59;;;11.56;54.72
12913;BME280;6524;51.368;11.984;2023-01-25T07:59:03;102105.75;;;11.38;55.56
12913;BME280;6524;51.368;11.984;2023-01-25T08:04:04;102094.13;;;10.48;57.87
12913;BME280;6524;51.368;11.984;2023-01-25T08:09:10;102104.47;;;10.69;57.63
12913;BME280;6524;51.368;11.984;2023-01-25T08:14:11;102097.38;;;10.89;56.75
12913;BME280;6524;51.368;11.984;2023-01-25T08:19:12;102096.34;;;11.15;56.37
12913;BME280;6524;51.368;11.984;2023-01-25T08:24:12;102089.31;;;11.23;55.63
12913;BME280;6524;51.368;11.984;2023-01-25T08:29:13;102090.41;;;10.95;55.91
12913;BME280;6524;51.368;11.984;2023-01-25T08:34:13;102085.97;;;11.07;55.63
12913;BME280;6524;51.368;11.984;2023-01-25T08:39:14;102093.84;;;10.98;56.02
12913;BME280;6524;51.368;11.984;2023-01-25T08:44:14;102092.47;;;10.17;57.15
12913;BME280;6524;51.368;11.984;2023-01-25T08:49:15;102085.63;;;9.93;58.82
12913;BME280;6524;51.368;11.984;2023-01-25T08:54:15;102084.31;;;10.96;56.09
12913;BME280;6524;51.368;11.984;2023-01-25T08:59:16;102083.75;;;10.38;56.55
12913;BME280;6524;51.368;11.984;2023-01-25T09:04:16;102076.66;;;10.70;56.36
12913;BME280;6524;51.368;11.984;2023-01-25T09:09:16;102073.34;;;11.60;54.02
12913;BME280;6524;51.368;11.984;2023-01-25T09:14:17;102065.78;;;11.28;54.08
12913;BME280;6524;51.368;11.984;2023-01-25T09:19:17;102070.84;;;11.48;53.98
12913;BME280;6524;51.368;11.984;2023-01-25T09:24:18;102067.44;;;11.37;54.24
12913;BME280;6524;51.368;11.984;2023-01-25T09:29:18;102061.47;;;11.24;54.68
12913;BME280;6524;51.368;11.984;2023-01-25T09:34:18;102059.78;;;11.18;54.93
12913;BME280;6524;51.368;11.984;2023-01-25T09:39:19;102044.50;;;11.72;53.73
12913;BME280;6524;51.368;11.984;2023-01-25T09:55:33;102027.00;;;11.77;53.44
12913;BME280;6524;51.368;11.984;2023-01-25T10:00:44;102036.66;;;11.72;53.87
12913;BME280;6524;51.368;11.984;2023-01-25T10:05:49;102033.53;;;11.35;54.55
12913;BME280;6524;51.368;11.984;2023-01-25T10:10:57;102023.91;;;11.42;54.34
12913;BME280;6524;51.368;11.984;2023-01-25T10:16:28;102029.41;;;11.08;54.64
12913;BME280;6524;51.368;11.984;2023-01-25T10:21:40;102005.31;;;10.75;55.36
12913;BME280;6524;51.368;11.984;2023-01-25T10:26:57;102006.31;;;11.56;53.06
12913;BME280;6524;51.368;11.984;2023-01-25T10:32:17;101999.50;;;11.43;52.74
12913;BME280;6524;51.368;11.984;2023-01-25T10:37:21;101987.47;;;12.08;51.24
12913;BME280;6524;51.368;11.984;2023-01-25T10:42:25;101978.72;;;12.11;50.97
12913;BME280;6524;51.368;11.984;2023-01-25T10:47:28;101967.91;;;11.67;51.41
12913;BME280;6524;51.368;11.984;2023-01-25T10:52:31;101961.03;;;12.30;49.96
12913;BME280;6524;51.368;11.984;2023-01-25T10:57:33;101952.41;;;12.23;50.47
12913;BME280;6524;51.368;11.984;2023-01-25T11:07:35;101942.72;;;12.30;50.38
12913;BME280;6524;51.368;11.984;2023-01-25T11:12:35;101943.50;;;11.68;51.07
12913;BME280;6524;51.368;11.984;2023-01-25T11:17:36;101924.88;;;12.56;49.85
12913;BME280;6524;51.368;11.984;2023-01-25T11:22:36;101922.34;;;11.90;51.26
12913;BME280;6524;51.368;11.984;2023-01-25T11:27:36;101915.06;;;12.13;50.84
12913;BME280;6524;51.368;11.984;2023-01-25T11:32:38;101902.56;;;12.34;50.53
12913;BME280;6524;51.368;11.984;2023-01-25T11:44:36;101887.19;;;11.43;52.34
12913;BME280;6524;51.368;11.984;2023-01-25T12:00:03;101863.88;;;11.98;51.15
12913;BME280;6524;51.368;11.984;2023-01-25T12:05:27;101858.25;;;11.61;51.94
12913;BME280;6524;51.368;11.984;2023-01-25T12:11:05;101831.84;;;12.40;50.49
12913;BME280;6524;51.368;11.984;2023-01-25T12:16:18;101833.22;;;12.08;51.35
12913;BME280;6524;51.368;11.984;2023-01-25T12:37:31;101789.31;;;12.29;50.28
12913;BME280;6524;51.368;11.984;2023-01-25T12:42:38;101775.75;;;12.05;50.57
12913;BME280;6524;51.368;11.984;2023-01-25T12:47:49;101771.09;;;12.24;50.45
12913;BME280;6524;51.368;11.984;2023-01-25T12:52:54;101758.81;;;12.29;49.51
12913;BME280;6524;51.368;11.984;2023-01-25T13:13:38;101728.94;;;11.90;50.69
12913;BME280;6524;51.368;11.984;2023-01-25T13:18:39;101730.09;;;11.70;51.25
12913;BME280;6524;51.368;11.984;2023-01-25T13:23:41;101709.91;;;11.81;50.66
12913;BME280;6524;51.368;11.984;2023-01-25T13:33:54;101687.22;;;11.84;50.21
12913;BME280;6524;51.368;11.984;2023-01-25T13:38:54;101681.69;;;12.02;49.89
12913;BME280;6524;51.368;11.984;2023-01-25T13:44:18;101680.28;;;12.32;49.64
12913;BME280;6524;51.368;11.984;2023-01-25T13:49:25;101664.22;;;11.50;51.78
12913;BME280;6524;51.368;11.984;2023-01-25T13:54:27;101651.09;;;12.09;50.19
12913;BME280;6524;51.368;11.984;2023-01-25T13:59:27;101658.78;;;10.38;53.34
12913;BME280;6524;51.368;11.984;2023-01-25T14:04:28;101656.72;;;11.31;51.90
12913;BME280;6524;51.368;11.984;2023-01-25T14:09:32;101648.78;;;11.92;50.49
12913;BME280;6524;51.368;11.984;2023-01-25T14:14:34;101644.09;;;12.09;49.89
12913;BME280;6524;51.368;11.984;2023-01-25T14:19:36;101640.31;;;11.76;50.52
12913;BME280;6524;51.368;11.984;2023-01-25T14:24:38;101637.09;;;12.13;49.53
12913;BME280;6524;51.368;11.984;2023-01-25T14:29:39;101627.25;;;12.25;49.53
12913;BME280;6524;51.368;11.984;2023-01-25T14:34:39;101628.75;;;11.91;49.91
12913;BME280;6524;51.368;11.984;2023-01-25T14:39:40;101621.91;;;12.32;49.13
12913;BME280;6524;51.368;11.984;2023-01-25T14:44:40;101618.16;;;12.45;48.59
12913;BME280;6524;51.368;11.984;2023-01-25T14:49:41;101597.34;;;12.39;48.96
12913;BME280;6524;51.368;11.984;2023-01-25T14:54:52;101599.25;;;12.31;49.27
12913;BME280;6524;51.368;11.984;2023-01-25T14:59:55;101590.88;;;12.13;49.78
12913;BME280;6524;51.368;11.984;2023-01-25T15:04:59;101583.91;;;11.64;50.63
12913;BME280;6524;51.368;11.984;2023-01-25T15:10:21;101572.66;;;12.09;49.70
12913;BME280;6524;51.368;11.984;2023-01-25T15:15:23;101577.22;;;11.99;49.90
12913;BME280;6524;51.368;11.984;2023-01-25T15:20:34;101570.91;;;11.61;50.87
12913;BME280;6524;51.368;11.984;2023-01-25T15:25:54;101557.78;;;12.12;49.85
12913;BME280;6524;51.368;11.984;2023-01-25T15:30:54;101559.50;;;12.13;49.40
12913;BME280;6524;51.368;11.984;2023-01-25T15:35:57;101549.44;;;12.37;49.07
12913;BME280;6524;51.368;11.984;2023-01-25T15:40:58;101542.88;;;12.16;49.93
12913;BME280;6524;51.368;11.984;2023-01-25T15:46:03;101548.16;;;12.14;49.27
12913;BME280;6524;51.368;11.984;2023-01-25T15:51:29;101537.38;;;12.30;49.20
12913;BME280;6524;51.368;11.984;2023-01-25T15:56:35;101529.28;;;11.52;50.73
12913;BME280;6524;51.368;11.984;2023-01-25T16:01:36;101531.38;;;11.79;49.78
12913;BME280;6524;51.368;11.984;2023-01-25T16:11:41;101523.22;;;11.98;49.11
12913;BME280;6524;51.368;11.984;2023-01-25T16:16:46;101518.44;;;11.73;49.77
12913;BME280;6524;51.368;11.984;2023-01-25T16:21:49;101515.38;;;11.96;49.66
12913;BME280;6524;51.368;11.984;2023-01-25T16:26:52;101508.59;;;11.40;51.19
12913;BME280;6524;51.368;11.984;2023-01-25T16:31:54;101509.00;;;11.15;51.83
12913;BME280;6524;51.368;11.984;2023-01-25T16:36:54;101507.59;;;11.95;49.77
12913;BME280;6524;51.368;11.984;2023-01-25T16:41:57;101503.78;;;12.11;48.86
12913;BME280;6524;51.368;11.984;2023-01-25T16:46:57;101502.69;;;11.76;50.10
12913;BME280;6524;51.368;11.984;2023-01-25T16:52:00;101489.94;;;11.13;51.07
12913;BME280;6524;51.368;11.984;2023-01-25T16:57:00;101490.19;;;11.47;49.92
12913;BME280;6524;51.368;11.984;2023-01-25T17:02:01;101477.66;;;11.65;50.20
12913;BME280;6524;51.368;11.984;2023-01-25T17:07:01;101473.69;;;11.92;49.59
12913;BME280;6524;51.368;11.984;2023-01-25T17:12:02;101473.34;;;11.64;50.39
12913;BME280;6524;51.368;11.984;2023-01-25T17:17:02;101463.34;;;11.41;50.51
12913;BME280;6524;51.368;11.984;2023-01-25T17:22:04;101464.59;;;11.65;50.11
12913;BME280;6524;51.368;11.984;2023-01-25T17:27:04;101463.19;;;11.93;49.35
12913;BME280;6524;51.368;11.984;2023-01-25T17:32:05;101457.97;;;11.47;50.48
12913;BME280;6524;51.368;11.984;2023-01-25T17:37:06;101457.22;;;11.87;49.84
12913;BME280;6524;51.368;11.984;2023-01-25T17:42:06;101459.31;;;11.69;50.02
12913;BME280;6524;51.368;11.984;2023-01-25T17:47:08;101439.19;;;12.16;49.06
12913;BME280;6524;51.368;11.984;2023-01-25T17:52:08;101438.16;;;12.23;48.99
12913;BME280;6524;51.368;11.984;2023-01-25T17:57:08;101422.09;;;12.00;49.61
12913;BME280;6524;51.368;11.984;2023-01-25T18:02:09;101416.16;;;11.93;50.15
12913;BME280;6524;51.368;11.984;2023-01-25T18:07:10;101410.59;;;12.09;49.17
12913;BME280;6524;51.368;11.984;2023-01-25T18:12:10;101411.59;;;10.62;52.89
12913;BME280;6524;51.368;11.984;2023-01-25T18:17:11;101412.44;;;11.15;51.24
12913;BME280;6524;51.368;11.984;2023-01-25T18:22:11;101390.44;;;10.80;52.71
12913;BME280;6524;51.368;11.984;2023-01-25T18:27:24;101373.81;;;10.86;52.43
12913;BME280;6524;51.368;11.984;2023-01-25T18:32:24;101375.53;;;10.88;52.14
12913;BME280;6524;51.368;11.984;2023-01-25T18:37:25;101375.50;;;11.37;51.38
12913;BME280;6524;51.368;11.984;2023-01-25T18:42:32;101369.41;;;11.38;51.22
12913;BME280;6524;51.368;11.984;2023-01-25T18:47:33;101379.47;;;11.11;51.41
12913;BME280;6524;51.368;11.984;2023-01-25T18:52:34;101371.22;;;11.74;50.00
12913;BME280;6524;51.368;11.984;2023-01-25T18:57:35;101363.72;;;11.59;50.56
12913;BME280;6524;51.368;11.984;2023-01-25T19:02:35;101368.75;;;11.68;50.22
12913;BME280;6524;51.368;11.984;2023-01-25T19:07:35;101356.22;;;11.86;49.78
12913;BME280;6524;51.368;11.984;2023-01-25T19:12:36;101360.91;;;11.68;50.02
12913;BME280;6524;51.368;11.984;2023-01-25T19:17:36;101353.91;;;11.70;50.00
12913;BME280;6524;51.368;11.984;2023-01-25T19:22:37;101346.75;;;11.38;50.48
12913;BME280;6524;51.368;11.984;2023-01-25T19:27:39;101341.34;;;11.04;51.63
12913;BME280;6524;51.368;11.984;2023-01-25T19:32:39;101336.47;;;11.71;50.18
12913;BME280;6524;51.368;11.984;2023-01-25T19:37:40;101337.25;;;11.74;49.94
12913;BME280;6524;51.368;11.984;2023-01-25T19:42:40;101329.13;;;11.90;49.76
12913;BME280;6524;51.368;11.984;2023-01-25T19:47:40;101322.25;;;11.44;50.54
12913;BME280;6524;51.368;11.984;2023-01-25T19:52:41;101313.47;;;11.48;50.43
12913;BME280;6524;51.368;11.984;2023-01-25T19:57:41;101305.25;;;11.24;51.18
12913;BME280;6524;51.368;11.984;2023-01-25T20:02:41;101304.78;;;11.04;51.59
12913;BME280;6524;51.368;11.984;2023-01-25T20:07:42;101286.03;;;11.28;51.27
12913;BME280;6524;51.368;11.984;2023-01-25T20:12:42;101281.53;;;11.35;50.75
12913;BME280;6524;51.368;11.984;2023-01-25T20:17:42;101273.13;;;11.21;50.60
12913;BME280;6524;51.368;11.984;2023-01-25T20:22:43;101253.69;;;11.34;50.92
12913;BME280;6524;51.368;11.984;2023-01-25T20:27:44;101252.13;;;10.85;51.39
12913;BME280;6524;51.368;11.984;2023-01-25T20:32:44;101254.00;;;11.19;50.85
12913;BME280;6524;51.368;11.984;2023-01-25T20:37:45;101240.56;;;11.39;50.45
12913;BME280;6524;51.368;11.984;2023-01-25T20:42:45;101244.97;;;10.95;51.20
12913;BME280;6524;51.368;11.984;2023-01-25T20:47:45;101236.78;;;11.52;50.26
12913;BME280;6524;51.368;11.984;2023-01-25T20:52:46;101218.81;;;10.98;51.83
12913;BME280;6524;51.368;11.984;2023-01-25T20:57:46;101234.47;;;10.98;51.64
12913;BME280;6524;51.368;11.984;2023-01-25T21:02:46;101239.50;;;11.07;51.08
12913;BME280;6524;51.368;11.984;2023-01-25T21:07:47;101227.44;;;11.00;50.94
12913;BME280;6524;51.368;11.984;2023-01-25T21:12:47;101224.41;;;10.79;51.93
12913;BME280;6524;51.368;11.984;2023-01-25T21:17:51;101239.19;;;10.31;52.90
12913;BME280;6524;51.368;11.984;2023-01-25T21:22:51;101226.59;;;10.99;51.55
12913;BME280;6524;51.368;11.984;2023-01-25T21:27:52;101239.88;;;10.88;51.79
12913;BME280;6524;51.368;11.984;2023-01-25T21:32:52;101219.34;;;10.70;51.27
12913;BME280;6524;51.368;11.984;2023-01-25T21:37:53;101221.16;;;10.18;53.56
12913;BME280;6524;51.368;11.984;2023-01-25T21:42:53;101225.19;;;10.36;52.84
12913;BME280;6524;51.368;11.984;2023-01-25T21:47:58;101214.31;;;10.61;52.41
12913;BME280;6524;51.368;11.984;2023-01-25T21:52:58;101211.25;;;10.40;52.58
12913;BME280;6524;51.368;11.984;2023-01-25T21:57:59;101202.34;;;10.51;52.68
12913;BME280;6524;51.368;11.984;2023-01-25T22:02:59;101207.13;;;10.26;52.98
12913;BME280;6524;51.368;11.984;2023-01-25T22:07:59;101206.28;;;10.25;53.60
12913;BME280;6524;51.368;11.984;2023-01-25T22:13:00;101199.34;;;10.23;53.43
12913;BME280;6524;51.368;11.984;2023-01-25T22:18:00;101181.06;;;10.26;52.76
12913;BME280;6524;51.368;11.984;2023-01-25T22:23:00;101179.63;;;10.08;54.07
12913;BME280;6524;51.368;11.984;2023-01-25T22:28:02;101187.25;;;10.67;52.31
12913;BME280;6524;51.368;11.984;2023-01-25T22:33:03;101168.06;;;11.11;50.71
12913;BME280;6524;51.368;11.984;2023-01-25T22:38:12;101161.38;;;10.57;51.29
12913;BME280;6524;51.368;11.984;2023-01-25T22:43:13;101147.91;;;10.77;51.45
12913;BME280;6524;51.368;11.984;2023-01-25T22:48:13;101153.19;;;10.74;51.42
12913;BME280;6524;51.368;11.984;2023-01-25T22:53:13;101145.81;;;10.95;51.40
12913;BME280;6524;51.368;11.984;2023-01-25T22:58:14;101135.03;;;11.10;51.13
12913;BME280;6524;51.368;11.984;2023-01-25T23:03:14;101142.38;;;10.93;51.26
12913;BME280;6524;51.368;11.984;2023-01-25T23:08:15;101129.75;;;11.13;50.83
12913;BME280;6524;51.368;11.984;2023-01-25T23:13:16;101124.66;;;11.07;51.48
12913;BME280;6524;51.368;11.984;2023-01-25T23:18:16;101122.09;;;11.05;51.81
12913;BME280;6524;51.368;11.984;2023-01-25T23:23:35;101121.38;;;10.99;51.63
12913;BME280;6524;51.368;11.984;2023-01-25T23:28:36;101112.13;;;10.84;51.22
12913;BME280;6524;51.368;11.984;2023-01-25T23:33:37;101106.41;;;11.07;51.62
12913;BME280;6524;51.368;11.984;2023-01-25T23:38:39;101102.19;;;10.61;52.63
12913;BME280;6524;51.368;11.984;2023-01-25T23:43:40;101100.16;;;10.75;51.94
12913;BME280;6524;51.368;11.984;2023-01-25T23:48:42;101100.63;;;10.93;51.92
12913;BME280;6524;51.368;11.984;2023-01-25T23:53:43;101111.34;;;11.55;50.83
12913;BME280;6524;51.368;11.984;2023-01-25T23:58:45;101112.44;;;11.80;50.15
